<?xml version="1.0" encoding="UTF-8" standalone="no" ?>
<gpx xmlns="http://www.topografix.com/GPX/1/1" xmlns:xsi="http://www.w3.org/2001/XMLSchema-instance" xsi:schemaLocation="http://www.topografix.com/GPX/1/1 http://www.topografix.com/GPX/1/1/gpx.xsd" version="1.1" creator="VisuGPX - https://www.visugpx.com">
  <metadata>
    <name>Lorleau 2018 Le matin</name>
    <desc><![CDATA[Parcours Sangliers du VEXIN du matin du 20,10,2018 à partir de Lorleau en forêt de Lyons.]]></desc>
  </metadata>
  <trk>
    <name><![CDATA[9204200-Lorleau le matin des Sangliers]]></name>
    <trkseg>
      <trkpt lat="49.41293" lon="1.49886">
        <ele>98</ele>
        <time>2018-10-11T15:30:47Z</time>
      </trkpt>
      <trkpt lat="49.41352" lon="1.49883">
        <ele>99</ele>
        <time>2018-10-11T15:31:47Z</time>
      </trkpt>
      <trkpt lat="49.41362" lon="1.49932">
        <ele>98</ele>
        <time>2018-10-11T15:32:47Z</time>
      </trkpt>
      <trkpt lat="49.41398" lon="1.4998">
        <ele>98</ele>
        <time>2018-10-11T15:33:47Z</time>
      </trkpt>
      <trkpt lat="49.41467" lon="1.50266">
        <ele>99</ele>
        <time>2018-10-11T15:34:47Z</time>
      </trkpt>
      <trkpt lat="49.41445" lon="1.50402">
        <ele>100</ele>
        <time>2018-10-11T15:35:47Z</time>
      </trkpt>
      <trkpt lat="49.41463" lon="1.50502">
        <ele>100</ele>
        <time>2018-10-11T15:36:47Z</time>
      </trkpt>
      <trkpt lat="49.41528" lon="1.50572">
        <ele>102</ele>
        <time>2018-10-11T15:37:47Z</time>
      </trkpt>
      <trkpt lat="49.41558" lon="1.5066">
        <ele>104</ele>
        <time>2018-10-11T15:38:47Z</time>
      </trkpt>
      <trkpt lat="49.4154" lon="1.50885">
        <ele>105</ele>
        <time>2018-10-11T15:39:47Z</time>
      </trkpt>
      <trkpt lat="49.4166" lon="1.51376">
        <ele>105</ele>
        <time>2018-10-11T15:40:47Z</time>
      </trkpt>
      <trkpt lat="49.41676" lon="1.51832">
        <ele>108</ele>
        <time>2018-10-11T15:41:47Z</time>
      </trkpt>
      <trkpt lat="49.41737" lon="1.5212">
        <ele>116</ele>
        <time>2018-10-11T15:42:47Z</time>
      </trkpt>
      <trkpt lat="49.41857" lon="1.5261">
        <ele>131</ele>
        <time>2018-10-11T15:43:47Z</time>
      </trkpt>
      <trkpt lat="49.42039" lon="1.5293">
        <ele>125</ele>
        <time>2018-10-11T15:44:47Z</time>
      </trkpt>
      <trkpt lat="49.42207" lon="1.53109">
        <ele>122</ele>
        <time>2018-10-11T15:45:47Z</time>
      </trkpt>
      <trkpt lat="49.42018" lon="1.53737">
        <ele>160</ele>
        <time>2018-10-11T15:46:47Z</time>
      </trkpt>
      <trkpt lat="49.42032" lon="1.53819">
        <ele>162</ele>
        <time>2018-10-11T15:47:47Z</time>
      </trkpt>
      <trkpt lat="49.4203" lon="1.53898">
        <ele>163</ele>
        <time>2018-10-11T15:48:47Z</time>
      </trkpt>
      <trkpt lat="49.42" lon="1.53956">
        <ele>162</ele>
        <time>2018-10-11T15:49:47Z</time>
      </trkpt>
      <trkpt lat="49.41978" lon="1.54405">
        <ele>160</ele>
        <time>2018-10-11T15:50:47Z</time>
      </trkpt>
      <trkpt lat="49.41422" lon="1.54411">
        <ele>164</ele>
        <time>2018-10-11T15:51:47Z</time>
      </trkpt>
      <trkpt lat="49.41396" lon="1.54365">
        <ele>161</ele>
        <time>2018-10-11T15:52:47Z</time>
      </trkpt>
      <trkpt lat="49.41339" lon="1.54411">
        <ele>162</ele>
        <time>2018-10-11T15:53:47Z</time>
      </trkpt>
      <trkpt lat="49.40363" lon="1.54411">
        <ele>165</ele>
        <time>2018-10-11T15:54:47Z</time>
      </trkpt>
      <trkpt lat="49.39514" lon="1.53734">
        <ele>166</ele>
        <time>2018-10-11T15:55:47Z</time>
      </trkpt>
      <trkpt lat="49.39635" lon="1.53282">
        <ele>155</ele>
        <time>2018-10-11T15:56:47Z</time>
      </trkpt>
      <trkpt lat="49.39056" lon="1.52608">
        <ele>160</ele>
        <time>2018-10-11T15:57:47Z</time>
      </trkpt>
      <trkpt lat="49.39034" lon="1.52469">
        <ele>165</ele>
        <time>2018-10-11T15:58:47Z</time>
      </trkpt>
      <trkpt lat="49.3905" lon="1.5235">
        <ele>167</ele>
        <time>2018-10-11T15:59:47Z</time>
      </trkpt>
      <trkpt lat="49.39093" lon="1.52305">
        <ele>164</ele>
        <time>2018-10-11T16:00:47Z</time>
      </trkpt>
      <trkpt lat="49.38272" lon="1.51859">
        <ele>127</ele>
        <time>2018-10-11T16:01:47Z</time>
      </trkpt>
      <trkpt lat="49.38244" lon="1.51889">
        <ele>123</ele>
        <time>2018-10-11T16:02:47Z</time>
      </trkpt>
      <trkpt lat="49.38155" lon="1.51886">
        <ele>131</ele>
        <time>2018-10-11T16:03:47Z</time>
      </trkpt>
      <trkpt lat="49.38068" lon="1.51926">
        <ele>136</ele>
        <time>2018-10-11T16:04:47Z</time>
      </trkpt>
      <trkpt lat="49.37904" lon="1.52109">
        <ele>151</ele>
        <time>2018-10-11T16:05:47Z</time>
      </trkpt>
      <trkpt lat="49.37794" lon="1.52332">
        <ele>155</ele>
        <time>2018-10-11T16:06:47Z</time>
      </trkpt>
      <trkpt lat="49.3743" lon="1.51744">
        <ele>168</ele>
        <time>2018-10-11T16:07:47Z</time>
      </trkpt>
      <trkpt lat="49.37317" lon="1.51367">
        <ele>155</ele>
        <time>2018-10-11T16:08:47Z</time>
      </trkpt>
      <trkpt lat="49.37118" lon="1.51388">
        <ele>164</ele>
        <time>2018-10-11T16:09:47Z</time>
      </trkpt>
      <trkpt lat="49.37169" lon="1.51261">
        <ele>172</ele>
        <time>2018-10-11T16:10:47Z</time>
      </trkpt>
      <trkpt lat="49.36357" lon="1.49902">
        <ele>177</ele>
        <time>2018-10-11T16:11:47Z</time>
      </trkpt>
      <trkpt lat="49.36539" lon="1.48712">
        <ele>160</ele>
        <time>2018-10-11T16:12:47Z</time>
      </trkpt>
      <trkpt lat="49.36509" lon="1.47914">
        <ele>130</ele>
        <time>2018-10-11T16:13:47Z</time>
      </trkpt>
      <trkpt lat="49.3659" lon="1.47877">
        <ele>131</ele>
        <time>2018-10-11T16:14:47Z</time>
      </trkpt>
      <trkpt lat="49.36651" lon="1.47902">
        <ele>124</ele>
        <time>2018-10-11T16:15:47Z</time>
      </trkpt>
      <trkpt lat="49.36696" lon="1.47903">
        <ele>116</ele>
        <time>2018-10-11T16:16:47Z</time>
      </trkpt>
      <trkpt lat="49.3679" lon="1.48008">
        <ele>104</ele>
        <time>2018-10-11T16:17:47Z</time>
      </trkpt>
      <trkpt lat="49.36938" lon="1.47905">
        <ele>95</ele>
        <time>2018-10-11T16:18:47Z</time>
      </trkpt>
      <trkpt lat="49.36999" lon="1.47947">
        <ele>100</ele>
        <time>2018-10-11T16:19:47Z</time>
      </trkpt>
      <trkpt lat="49.37041" lon="1.48157">
        <ele>105</ele>
        <time>2018-10-11T16:20:47Z</time>
      </trkpt>
      <trkpt lat="49.37128" lon="1.48108">
        <ele>119</ele>
        <time>2018-10-11T16:21:47Z</time>
      </trkpt>
      <trkpt lat="49.37234" lon="1.48163">
        <ele>132</ele>
        <time>2018-10-11T16:22:47Z</time>
      </trkpt>
      <trkpt lat="49.37499" lon="1.48214">
        <ele>153</ele>
        <time>2018-10-11T16:23:47Z</time>
      </trkpt>
      <trkpt lat="49.37722" lon="1.48539">
        <ele>173</ele>
        <time>2018-10-11T16:24:47Z</time>
      </trkpt>
      <trkpt lat="49.37869" lon="1.48685">
        <ele>175</ele>
        <time>2018-10-11T16:25:47Z</time>
      </trkpt>
      <trkpt lat="49.37683" lon="1.48169">
        <ele>167</ele>
        <time>2018-10-11T16:26:47Z</time>
      </trkpt>
      <trkpt lat="49.37999" lon="1.48096">
        <ele>178</ele>
        <time>2018-10-11T16:27:47Z</time>
      </trkpt>
      <trkpt lat="49.37952" lon="1.47796">
        <ele>182</ele>
        <time>2018-10-11T16:28:47Z</time>
      </trkpt>
      <trkpt lat="49.38422" lon="1.47814">
        <ele>170</ele>
        <time>2018-10-11T16:29:47Z</time>
      </trkpt>
      <trkpt lat="49.38416" lon="1.4762">
        <ele>171</ele>
        <time>2018-10-11T16:30:47Z</time>
      </trkpt>
      <trkpt lat="49.38386" lon="1.47143">
        <ele>176</ele>
        <time>2018-10-11T16:31:47Z</time>
      </trkpt>
      <trkpt lat="49.38493" lon="1.46979">
        <ele>183</ele>
        <time>2018-10-11T16:32:47Z</time>
      </trkpt>
      <trkpt lat="49.38522" lon="1.46645">
        <ele>186</ele>
        <time>2018-10-11T16:33:47Z</time>
      </trkpt>
      <trkpt lat="49.38684" lon="1.46202">
        <ele>187</ele>
        <time>2018-10-11T16:34:47Z</time>
      </trkpt>
      <trkpt lat="49.38682" lon="1.46117">
        <ele>189</ele>
        <time>2018-10-11T16:35:47Z</time>
      </trkpt>
      <trkpt lat="49.38615" lon="1.45863">
        <ele>176</ele>
        <time>2018-10-11T16:36:47Z</time>
      </trkpt>
      <trkpt lat="49.38631" lon="1.4572">
        <ele>163</ele>
        <time>2018-10-11T16:37:47Z</time>
      </trkpt>
      <trkpt lat="49.3892" lon="1.464">
        <ele>181</ele>
        <time>2018-10-11T16:38:47Z</time>
      </trkpt>
      <trkpt lat="49.38977" lon="1.46357">
        <ele>176</ele>
        <time>2018-10-11T16:39:47Z</time>
      </trkpt>
      <trkpt lat="49.39046" lon="1.46433">
        <ele>168</ele>
        <time>2018-10-11T16:40:47Z</time>
      </trkpt>
      <trkpt lat="49.39068" lon="1.4656">
        <ele>167</ele>
        <time>2018-10-11T16:41:47Z</time>
      </trkpt>
      <trkpt lat="49.39103" lon="1.46627">
        <ele>165</ele>
        <time>2018-10-11T16:42:47Z</time>
      </trkpt>
      <trkpt lat="49.39111" lon="1.46906">
        <ele>164</ele>
        <time>2018-10-11T16:43:47Z</time>
      </trkpt>
      <trkpt lat="49.39095" lon="1.47025">
        <ele>165</ele>
        <time>2018-10-11T16:44:47Z</time>
      </trkpt>
      <trkpt lat="49.39126" lon="1.47026">
        <ele>162</ele>
        <time>2018-10-11T16:45:47Z</time>
      </trkpt>
      <trkpt lat="49.39392" lon="1.47131">
        <ele>151</ele>
        <time>2018-10-11T16:46:47Z</time>
      </trkpt>
      <trkpt lat="49.39536" lon="1.47101">
        <ele>139</ele>
        <time>2018-10-11T16:47:47Z</time>
      </trkpt>
      <trkpt lat="49.39617" lon="1.47073">
        <ele>126</ele>
        <time>2018-10-11T16:48:47Z</time>
      </trkpt>
      <trkpt lat="49.39712" lon="1.47116">
        <ele>117</ele>
        <time>2018-10-11T16:49:47Z</time>
      </trkpt>
      <trkpt lat="49.39777" lon="1.4718">
        <ele>109</ele>
        <time>2018-10-11T16:50:47Z</time>
      </trkpt>
      <trkpt lat="49.39846" lon="1.47146">
        <ele>97</ele>
        <time>2018-10-11T16:51:47Z</time>
      </trkpt>
      <trkpt lat="49.39891" lon="1.47213">
        <ele>93</ele>
        <time>2018-10-11T16:52:47Z</time>
      </trkpt>
      <trkpt lat="49.39893" lon="1.47301">
        <ele>94</ele>
        <time>2018-10-11T16:53:47Z</time>
      </trkpt>
      <trkpt lat="49.39941" lon="1.47352">
        <ele>92</ele>
        <time>2018-10-11T16:54:47Z</time>
      </trkpt>
      <trkpt lat="49.40116" lon="1.47334">
        <ele>89</ele>
        <time>2018-10-11T16:55:47Z</time>
      </trkpt>
      <trkpt lat="49.40191" lon="1.47277">
        <ele>105</ele>
        <time>2018-10-11T16:56:47Z</time>
      </trkpt>
      <trkpt lat="49.40292" lon="1.4751">
        <ele>104</ele>
        <time>2018-10-11T16:57:47Z</time>
      </trkpt>
      <trkpt lat="49.40328" lon="1.4761">
        <ele>103</ele>
        <time>2018-10-11T16:58:47Z</time>
      </trkpt>
      <trkpt lat="49.40343" lon="1.47708">
        <ele>100</ele>
        <time>2018-10-11T16:59:47Z</time>
      </trkpt>
      <trkpt lat="49.40377" lon="1.47774">
        <ele>105</ele>
        <time>2018-10-11T17:00:47Z</time>
      </trkpt>
      <trkpt lat="49.40351" lon="1.47808">
        <ele>98</ele>
        <time>2018-10-11T17:01:47Z</time>
      </trkpt>
      <trkpt lat="49.40426" lon="1.48205">
        <ele>100</ele>
        <time>2018-10-11T17:02:47Z</time>
      </trkpt>
      <trkpt lat="49.4048" lon="1.48314">
        <ele>94</ele>
        <time>2018-10-11T17:03:47Z</time>
      </trkpt>
      <trkpt lat="49.40681" lon="1.48287">
        <ele>110</ele>
        <time>2018-10-11T17:04:47Z</time>
      </trkpt>
      <trkpt lat="49.40835" lon="1.48132">
        <ele>134</ele>
        <time>2018-10-11T17:05:47Z</time>
      </trkpt>
      <trkpt lat="49.40879" lon="1.48011">
        <ele>139</ele>
        <time>2018-10-11T17:06:47Z</time>
      </trkpt>
      <trkpt lat="49.40948" lon="1.47941">
        <ele>144</ele>
        <time>2018-10-11T17:07:47Z</time>
      </trkpt>
      <trkpt lat="49.41005" lon="1.47962">
        <ele>152</ele>
        <time>2018-10-11T17:08:47Z</time>
      </trkpt>
      <trkpt lat="49.40938" lon="1.48096">
        <ele>150</ele>
        <time>2018-10-11T17:09:47Z</time>
      </trkpt>
      <trkpt lat="49.40989" lon="1.48211">
        <ele>153</ele>
        <time>2018-10-11T17:10:47Z</time>
      </trkpt>
      <trkpt lat="49.41368" lon="1.48269">
        <ele>144</ele>
        <time>2018-10-11T17:11:47Z</time>
      </trkpt>
      <trkpt lat="49.41445" lon="1.48439">
        <ele>144</ele>
        <time>2018-10-11T17:12:47Z</time>
      </trkpt>
      <trkpt lat="49.41481" lon="1.48715">
        <ele>158</ele>
        <time>2018-10-11T17:13:47Z</time>
      </trkpt>
      <trkpt lat="49.4168" lon="1.48846">
        <ele>160</ele>
        <time>2018-10-11T17:14:47Z</time>
      </trkpt>
      <trkpt lat="49.41856" lon="1.487">
        <ele>164</ele>
        <time>2018-10-11T17:15:47Z</time>
      </trkpt>
      <trkpt lat="49.41897" lon="1.48726">
        <ele>162</ele>
        <time>2018-10-11T17:16:47Z</time>
      </trkpt>
      <trkpt lat="49.41934" lon="1.48695">
        <ele>164</ele>
        <time>2018-10-11T17:17:47Z</time>
      </trkpt>
      <trkpt lat="49.41986" lon="1.48852">
        <ele>164</ele>
        <time>2018-10-11T17:18:47Z</time>
      </trkpt>
      <trkpt lat="49.42018" lon="1.4907">
        <ele>168</ele>
        <time>2018-10-11T17:19:47Z</time>
      </trkpt>
      <trkpt lat="49.42073" lon="1.49143">
        <ele>168</ele>
        <time>2018-10-11T17:20:47Z</time>
      </trkpt>
      <trkpt lat="49.42091" lon="1.49292">
        <ele>161</ele>
        <time>2018-10-11T17:21:47Z</time>
      </trkpt>
      <trkpt lat="49.42118" lon="1.49343">
        <ele>154</ele>
        <time>2018-10-11T17:22:47Z</time>
      </trkpt>
      <trkpt lat="49.42075" lon="1.49498">
        <ele>155</ele>
        <time>2018-10-11T17:23:47Z</time>
      </trkpt>
      <trkpt lat="49.41982" lon="1.49616">
        <ele>156</ele>
        <time>2018-10-11T17:24:47Z</time>
      </trkpt>
      <trkpt lat="49.41913" lon="1.49753">
        <ele>153</ele>
        <time>2018-10-11T17:25:47Z</time>
      </trkpt>
      <trkpt lat="49.41799" lon="1.49844">
        <ele>137</ele>
        <time>2018-10-11T17:26:47Z</time>
      </trkpt>
      <trkpt lat="49.41574" lon="1.49911">
        <ele>123</ele>
        <time>2018-10-11T17:27:47Z</time>
      </trkpt>
      <trkpt lat="49.41532" lon="1.4985">
        <ele>123</ele>
        <time>2018-10-11T17:28:47Z</time>
      </trkpt>
      <trkpt lat="49.41499" lon="1.49874">
        <ele>117</ele>
        <time>2018-10-11T17:29:47Z</time>
      </trkpt>
      <trkpt lat="49.41534" lon="1.50008">
        <ele>114</ele>
        <time>2018-10-11T17:30:47Z</time>
      </trkpt>
      <trkpt lat="49.41391" lon="1.49771">
        <ele>108</ele>
        <time>2018-10-11T17:31:47Z</time>
      </trkpt>
      <trkpt lat="49.41391" lon="1.49827">
        <ele>104</ele>
        <time>2018-10-11T17:32:47Z</time>
      </trkpt>
      <trkpt lat="49.41347" lon="1.49867">
        <ele>99</ele>
        <time>2018-10-11T17:33:47Z</time>
      </trkpt>
      <trkpt lat="49.41297" lon="1.49895">
        <ele>98</ele>
        <time>2018-10-11T17:34:47Z</time>
      </trkpt>
    </trkseg>
  </trk>
</gpx>